»·PEaware :: ASA680 KPHX-KPDX

ASA680 :: KPHX-KPDX

FLIGHT INFORMATION

Flight Status: Arrived
Operator:
Alaska Airlines
More flights by this operator :: More flights under this callsign
Pilot: Tyler J. (19619)
Aircraft: BOEING 737-900
(B739)
More flights by this aircraft type
Origin: KPHX Phoenix Sky Harbor Intl
United States
Destination: KPDX Portland Intl
United States
More flights between these airports :: More routes between these airports
Route: QUAKY1 GCN WINEN NEERO IMB JOTBA HHOOD4
File this flight plan on PilotEdge
Remarks:
Altitude:
(Current/Filed)
36,000ft
Speed:
(Current/Filed)
450kts
Departed: 29-Sep-18 06:47 PM
Arrived: 29-Sep-18 08:56 PM
Distance/Time
Traveled:
877nm/2:08
Distance/Time
To Go:
Arrived

Flight Plot

Page will automatically refresh every two minutes.

Flight plan parsing failed; only flown route is shown


Map Options




Map Legend


Flown Route
Filed Route
Departure Airport
Arrival Airport
Navaid (VOR, NDB)
Fix

Horizontal Profiles

Position Reports

Time Latitude Longitude Heading Altitude Ground
Speed
29-Sep-18 18:22 33.433458 -112.014523 85 1142ft 0kts
29-Sep-18 18:23 33.433458 -112.014523 85 1142ft 0kts
29-Sep-18 18:24 33.433458 -112.014523 85 1142ft 0kts
29-Sep-18 18:25 33.433458 -112.014523 85 1142ft 0kts
29-Sep-18 18:26 33.433458 -112.014523 85 1142ft 0kts
29-Sep-18 18:27 33.433458 -112.014523 85 1142ft 0kts
29-Sep-18 18:28 33.433458 -112.014523 85 1142ft 0kts
29-Sep-18 18:29 33.433458 -112.014523 85 1142ft 0kts
29-Sep-18 18:30 33.433458 -112.014523 85 1142ft 0kts
29-Sep-18 18:31 33.433458 -112.014523 85 1142ft 0kts
29-Sep-18 18:32 33.433458 -112.014523 85 1142ft 0kts
29-Sep-18 18:33 33.433458 -112.014523 85 1142ft 0kts
29-Sep-18 18:34 33.433458 -112.014523 85 1142ft 0kts
29-Sep-18 18:35 33.433458 -112.014523 85 1142ft 0kts
29-Sep-18 18:36 33.433458 -112.014523 85 1142ft 0kts
29-Sep-18 18:37 33.433458 -112.014523 85 1142ft 0kts
29-Sep-18 18:38 33.433415 -112.014934 78 1142ft 2kts
29-Sep-18 18:39 33.433351 -112.015217 68 1142ft 0kts
29-Sep-18 18:40 33.433352 -112.015215 68 1142ft 0kts
29-Sep-18 18:41 33.433353 -112.015213 68 1142ft 0kts
29-Sep-18 18:42 33.433195 -112.015007 206 1142ft 0kts
29-Sep-18 18:43 33.432271 -112.015574 140 1142ft 10kts
29-Sep-18 18:44 33.432179 -112.007732 89 1142ft 15kts
29-Sep-18 18:45 33.432174 -112.004683 89 1142ft 12kts
29-Sep-18 18:46 33.432171 -112.000688 91 1142ft 1kts
29-Sep-18 18:47 33.432156 -111.994617 90 1142ft 16kts
29-Sep-18 18:48 33.431041 -111.993900 270 1142ft 2kts
29-Sep-18 18:49 33.431043 -112.022656 270 1367ft 170kts
29-Sep-18 18:50 33.433613 -112.084974 272 3931ft 201kts
29-Sep-18 18:51 33.435314 -112.163351 283 6151ft 249kts
29-Sep-18 18:52 33.493916 -112.198665 0 9063ft 274kts
29-Sep-18 18:53 33.571740 -112.183982 12 11715ft 293kts
29-Sep-18 18:54 33.645675 -112.135175 46 13459ft 339kts
29-Sep-18 18:55 33.715674 -112.043738 46 14289ft 401kts
29-Sep-18 18:56 33.815817 -111.984871 7 16019ft 416kts
29-Sep-18 18:57 33.932684 -111.965362 6 17656ft 430kts
29-Sep-18 18:58 34.052543 -111.942898 7 19105ft 441kts
29-Sep-18 18:59 34.175530 -111.944041 352 20405ft 447kts
29-Sep-18 19:00 34.300613 -111.958604 352 21569ft 455kts
29-Sep-18 19:01 34.428042 -111.972791 352 22599ft 462kts
29-Sep-18 19:02 34.556791 -111.986986 353 23480ft 468kts
29-Sep-18 19:03 34.687445 -112.001485 353 24257ft 474kts
29-Sep-18 19:04 34.819533 -112.016236 352 24976ft 479kts
29-Sep-18 19:05 34.952978 -112.031284 352 25621ft 483kts
29-Sep-18 19:06 35.088271 -112.046546 352 26135ft 489kts
29-Sep-18 19:07 35.224242 -112.061958 352 26636ft 493kts
29-Sep-18 19:08 35.358397 -112.077239 352 27081ft 497kts
29-Sep-18 19:09 35.497097 -112.091098 353 27516ft 500kts
29-Sep-18 19:10 35.635951 -112.106970 352 27928ft 503kts
29-Sep-18 19:11 35.775385 -112.123719 351 28302ft 505kts
29-Sep-18 19:12 35.915768 -112.141205 348 28706ft 505kts
29-Sep-18 19:13 36.045405 -112.201084 328 29210ft 495kts
29-Sep-18 19:14 36.165730 -112.282935 327 29772ft 494kts
29-Sep-18 19:15 36.286315 -112.364354 327 30377ft 492kts
29-Sep-18 19:16 36.406300 -112.445093 327 30997ft 490kts
29-Sep-18 19:17 36.525823 -112.525886 327 31697ft 487kts
29-Sep-18 19:18 36.644542 -112.606443 327 32398ft 485kts
29-Sep-18 19:19 36.759872 -112.684978 327 33032ft 482kts
29-Sep-18 19:20 36.876643 -112.764776 326 33659ft 480kts
29-Sep-18 19:21 36.994753 -112.845772 326 34086ft 480kts
29-Sep-18 19:22 37.111675 -112.926227 326 34098ft 479kts
29-Sep-18 19:23 37.228348 -113.006821 326 34069ft 479kts
29-Sep-18 19:24 37.345336 -113.087912 325 34046ft 479kts
29-Sep-18 19:25 37.461990 -113.169057 325 34050ft 479kts
29-Sep-18 19:26 37.578576 -113.250462 325 34019ft 479kts
29-Sep-18 19:27 37.695232 -113.332047 325 34004ft 479kts
29-Sep-18 19:28 37.811679 -113.413978 324 34009ft 479kts
29-Sep-18 19:29 37.927578 -113.497383 320 33996ft 475kts
29-Sep-18 19:30 38.028539 -113.602232 313 33984ft 469kts
29-Sep-18 19:31 38.127752 -113.710451 313 33978ft 468kts
29-Sep-18 19:32 38.226585 -113.818125 313 33961ft 469kts
29-Sep-18 19:33 38.325835 -113.926170 313 33962ft 469kts
29-Sep-18 19:34 38.424734 -114.034437 312 33961ft 468kts
29-Sep-18 19:35 38.523328 -114.142836 312 33961ft 469kts
29-Sep-18 19:36 38.622085 -114.251848 312 33962ft 468kts
29-Sep-18 19:37 38.718620 -114.358813 312 33960ft 469kts
29-Sep-18 19:38 38.817123 -114.468372 312 33957ft 470kts
29-Sep-18 19:39 38.915938 -114.578699 312 33952ft 470kts
29-Sep-18 19:40 39.014573 -114.689248 312 33947ft 472kts
29-Sep-18 19:41 39.113610 -114.800678 312 33943ft 472kts
29-Sep-18 19:42 39.212556 -114.912438 312 33941ft 473kts
29-Sep-18 19:43 39.311269 -115.024370 311 33941ft 473kts
29-Sep-18 19:44 39.410014 -115.136777 311 33939ft 475kts
29-Sep-18 19:45 39.509017 -115.249923 311 33939ft 474kts
29-Sep-18 19:46 39.607829 -115.363298 311 33940ft 475kts
29-Sep-18 19:47 39.706673 -115.477162 311 33941ft 475kts
29-Sep-18 19:48 39.805342 -115.591275 311 33928ft 474kts
29-Sep-18 19:49 39.901261 -115.702654 311 33930ft 474kts
29-Sep-18 19:50 39.999282 -115.816919 311 33910ft 473kts
29-Sep-18 19:51 40.097229 -115.931560 310 33903ft 473kts
29-Sep-18 19:52 40.178514 -116.027052 310 33898ft 472kts
29-Sep-18 19:53 40.292470 -116.161466 310 33896ft 472kts
29-Sep-18 19:54 40.373747 -116.257725 310 33897ft 472kts
29-Sep-18 19:55 40.487573 -116.393083 310 33906ft 472kts
29-Sep-18 19:56 40.568467 -116.489675 310 33905ft 472kts
29-Sep-18 19:57 40.665732 -116.606251 309 33902ft 472kts
29-Sep-18 19:58 40.762738 -116.722999 309 33907ft 472kts
29-Sep-18 19:59 40.859749 -116.840225 309 33874ft 472kts
29-Sep-18 20:00 40.956326 -116.957431 309 33881ft 472kts
29-Sep-18 20:01 41.049815 -117.071327 308 33839ft 471kts
29-Sep-18 20:02 41.146171 -117.189220 308 33840ft 471kts
29-Sep-18 20:03 41.242659 -117.307784 307 33813ft 471kts
29-Sep-18 20:04 41.338664 -117.426246 307 33811ft 472kts
29-Sep-18 20:05 41.435103 -117.545747 307 33810ft 472kts
29-Sep-18 20:06 41.531175 -117.665298 307 33807ft 472kts
29-Sep-18 20:07 41.627246 -117.785001 307 33806ft 472kts
29-Sep-18 20:08 41.723051 -117.905368 307 33810ft 473kts
29-Sep-18 20:09 41.822791 -118.021500 319 33807ft 488kts
29-Sep-18 20:10 41.948518 -118.099094 328 33803ft 499kts
29-Sep-18 20:11 42.075958 -118.172068 329 33805ft 499kts
29-Sep-18 20:12 42.204013 -118.245363 329 33805ft 499kts
29-Sep-18 20:13 42.331666 -118.318668 329 33804ft 499kts
29-Sep-18 20:14 42.459507 -118.392537 329 33825ft 499kts
29-Sep-18 20:15 42.583076 -118.464259 329 33833ft 498kts
29-Sep-18 20:16 42.710789 -118.538711 329 33828ft 498kts
29-Sep-18 20:17 42.837786 -118.613096 330 33835ft 497kts
29-Sep-18 20:18 42.964918 -118.687891 329 33836ft 497kts
29-Sep-18 20:19 43.091748 -118.762850 329 33836ft 497kts
29-Sep-18 20:20 43.218908 -118.838346 329 33837ft 497kts
29-Sep-18 20:21 43.346218 -118.914275 329 33839ft 498kts
29-Sep-18 20:22 43.473258 -118.990396 329 33840ft 498kts
29-Sep-18 20:23 43.600018 -119.066698 329 33835ft 497kts
29-Sep-18 20:24 43.726825 -119.143381 330 33848ft 498kts
29-Sep-18 20:25 43.853649 -119.220430 330 33854ft 498kts
29-Sep-18 20:26 43.980393 -119.297791 330 33854ft 497kts
29-Sep-18 20:27 44.103374 -119.373202 330 33859ft 497kts
29-Sep-18 20:28 44.229517 -119.450911 329 33860ft 496kts
29-Sep-18 20:29 44.355713 -119.529007 330 33862ft 495kts
29-Sep-18 20:30 44.481388 -119.606991 330 33863ft 493kts
29-Sep-18 20:31 44.606273 -119.685487 327 33861ft 491kts
29-Sep-18 20:32 44.708749 -119.802134 305 33865ft 469kts
29-Sep-18 20:33 44.795808 -119.939032 305 33863ft 468kts
29-Sep-18 20:34 44.883268 -120.075874 307 33877ft 473kts
29-Sep-18 20:35 44.971792 -120.212897 307 33877ft 471kts
29-Sep-18 20:36 45.059516 -120.350314 307 31017ft 473kts
29-Sep-18 20:37 45.146233 -120.487569 306 28389ft 459kts
29-Sep-18 20:38 45.212192 -120.636377 294 25861ft 439kts
29-Sep-18 20:39 45.268283 -120.782095 295 23451ft 429kts
29-Sep-18 20:40 45.324633 -120.929653 295 20985ft 421kts
29-Sep-18 20:41 45.379433 -121.074013 295 18622ft 407kts
29-Sep-18 20:42 45.430081 -121.214149 288 16382ft 387kts
29-Sep-18 20:43 45.457660 -121.349558 283 15967ft 321kts
29-Sep-18 20:44 45.481385 -121.469842 284 13871ft 322kts
29-Sep-18 20:45 45.505336 -121.591327 285 12072ft 312kts
29-Sep-18 20:46 45.527588 -121.707789 284 10175ft 285kts
29-Sep-18 20:47 45.534766 -121.815728 273 8866ft 271kts
29-Sep-18 20:48 45.539833 -121.920332 273 7546ft 260kts
29-Sep-18 20:49 45.544505 -122.017628 273 6838ft 225kts
29-Sep-18 20:50 45.527153 -122.094478 239 5922ft 201kts
29-Sep-18 20:51 45.496080 -122.166182 240 5193ft 209kts
29-Sep-18 20:52 45.474235 -122.240819 265 5089ft 205kts
29-Sep-18 20:53 45.487145 -122.319069 296 4803ft 197kts
29-Sep-18 20:54 45.513619 -122.387981 298 3205ft 196kts
29-Sep-18 20:55 45.538208 -122.450585 298 1965ft 162kts
29-Sep-18 20:56 45.559838 -122.505690 298 1078ft 161kts
29-Sep-18 20:57 45.581553 -122.561677 298 177ft 160kts
29-Sep-18 20:58 45.594269 -122.594234 302 38ft 24kts
29-Sep-18 20:59 45.592106 -122.598446 234 38ft 13kts
29-Sep-18 21:00 45.589834 -122.601956 185 38ft 6kts
29-Sep-18 21:01 45.588978 -122.598263 33 38ft 6kts
29-Sep-18 21:02 45.589276 -122.597997 29 38ft 0kts

Navigation Log

Ident Type
Flight plan parsing failed, navigation log unavailable